Latest Weather Observations for Lucas Heights

IDN60901

Issued at 1:55 am EST Thursday 17 April 2014 (issued every 10 minutes, with the page automatically refreshed every 10 minutes)

About weather observations | Map of Sydney area stations | Latest observations for Sydney area | Other Formats
Station Details ID: 066023 Name: LUCAS HEIGHTS AWS Lat: -34.05 Lon: 150.98 Height: 140.0 m
Data from the previous 72 hours. | See also: Recent months for locations in New South Wales
Date/Time
EST
Tmp

°C
App
Tmp
°C
Dew
Point
°C
Rel
Hum
%
Delta-T

°C
Wind Press
QNH
hPa
Press
MSL
hPa
Rain
since
9 am
mm
Dir
 
Spd
km/h
Gust
km/h
Spd
kts
Gust
kts
17/01:45am 13.0 10.4 9.2 78 1.9 SSW 13 15 7 8 1018.2 - 0.0
17/01:30am 13.5 11.3 9.5 77 2.1 SSW 11 19 6 10 1018.3 - 0.0
17/01:15am 13.6 11.1 9.6 77 2.1 SSW 13 19 7 10 1018.4 - 0.0
17/01:00am 13.8 11.3 9.6 76 2.2 SSW 13 19 7 10 1018.6 - 0.0
17/12:45am 14.1 11.2 9.7 75 2.3 SSW 15 20 8 11 1018.6 - 0.0
17/12:30am 14.3 11.4 9.8 74 2.3 SSW 15 20 8 11 1018.7 - 0.0
17/12:15am 14.3 11.4 9.7 74 2.4 SSW 15 20 8 11 1018.7 - 0.0
17/12:00am 14.4 11.3 10.2 76 2.2 S 17 22 9 12 1018.8 - 0.0
 
Date/Time
EST
Tmp

°C
App
Tmp
°C
Dew
Point
°C
Rel
Hum
%
Delta-T

°C
Wind Press
QNH
hPa
Press
MSL
hPa
Rain
since
9 am
mm
Dir
 
Spd
km/h
Gust
km/h
Spd
kts
Gust
kts
16/11:45pm 14.0 10.9 10.3 78 1.9 SSW 17 20 9 11 1018.8 - 0.0
16/11:30pm 13.9 11.5 10.1 78 2.0 SSW 13 19 7 10 1018.8 - 0.0
16/11:15pm 14.3 12.4 10.5 78 2.0 SSW 11 15 6 8 1018.9 - 0.0
16/11:00pm 14.2 11.9 10.6 79 1.9 SSW 13 17 7 9 1019.0 - 0.0
16/10:45pm 14.2 11.5 10.5 78 2.0 S 15 20 8 11 1019.0 - 0.0
16/10:30pm 14.7 12.1 10.8 77 2.1 SSW 15 22 8 12 1019.0 - 0.0
16/10:15pm 15.1 12.6 11.1 77 2.1 SSW 15 22 8 12 1019.1 - 0.0
16/10:00pm 15.4 13.0 11.5 77 2.1 SSW 15 20 8 11 1019.3 - 0.0
16/09:45pm 15.4 13.1 11.6 78 2.1 SSW 15 19 8 10 1019.3 - 0.0
16/09:30pm 15.4 13.1 11.6 78 2.1 S 15 19 8 10 1019.2 - 0.0
16/09:15pm 15.6 13.3 11.7 77 2.1 SSW 15 19 8 10 1019.2 - 0.0
16/09:00pm 15.7 13.4 11.8 77 2.1 SSW 15 19 8 10 1019.2 - 0.0
16/08:45pm 15.8 13.1 11.7 76 2.2 SSW 17 19 9 10 1019.1 - 0.0
16/08:30pm 16.0 13.7 11.8 76 2.3 SSW 15 19 8 10 1019.0 - 0.0
16/08:15pm 16.2 13.9 11.9 75 2.4 SSW 15 19 8 10 1018.9 - 0.0
16/08:00pm 16.0 14.1 11.8 76 2.3 S 13 20 7 11 1018.7 - 0.0
16/07:45pm 16.2 14.0 12.0 76 2.3 S 15 20 8 11 1018.6 - 0.0
16/07:30pm 16.3 14.1 12.0 75 2.4 S 15 22 8 12 1018.5 - 0.0
16/07:15pm 16.6 14.4 12.2 75 2.4 S 15 22 8 12 1018.4 - 0.0
16/07:00pm 16.9 14.4 12.3 74 2.5 S 17 26 9 14 1018.3 - 0.0
16/06:45pm 17.0 14.5 12.3 74 2.6 S 17 24 9 13 1018.2 - 0.0
16/06:30pm 17.2 14.7 12.3 73 2.7 S 17 24 9 13 1018.1 - 0.0
16/06:15pm 17.2 14.3 12.3 73 2.7 SSE 19 28 10 15 1018.0 - 0.0
16/06:00pm 17.4 15.3 12.3 72 2.8 S 15 22 8 12 1017.9 - 0.0
16/05:45pm 17.7 14.8 12.4 71 3.0 SSE 19 28 10 15 1017.8 - 0.0
16/05:30pm 17.9 15.4 12.3 70 3.1 SSE 17 30 9 16 1017.7 - 0.0
16/05:15pm 18.2 15.4 12.5 69 3.2 SSE 19 26 10 14 1017.6 - 0.0
16/05:00pm 18.6 15.6 12.4 67 3.5 SSE 20 30 11 16 1017.6 - 0.0
16/04:45pm 18.9 15.9 12.5 66 3.6 S 20 33 11 18 1017.5 - 0.0
16/04:30pm 19.1 16.1 12.7 66 3.6 SSE 20 32 11 17 1017.4 - 0.0
16/04:15pm 19.2 15.0 12.5 65 3.8 SSE 26 39 14 21 1017.4 - 0.0
16/04:00pm 19.7 16.7 12.7 64 4.0 SSE 20 35 11 19 1017.4 - 0.0
16/03:45pm 19.8 16.4 12.4 62 4.2 SSE 22 33 12 18 1017.5 - 0.0
16/03:30pm 20.0 16.5 12.2 60 4.4 S 22 33 12 18 1017.5 - 0.0
16/03:15pm 20.1 16.6 12.3 61 4.4 SSE 22 41 12 22 1017.6 - 0.0
16/03:00pm 20.3 17.0 12.7 61 4.3 SSE 22 32 12 17 1017.6 - 0.0
16/02:45pm 20.2 16.1 12.6 61 4.3 SSE 26 35 14 19 1017.6 - 0.0
16/02:30pm 20.6 17.0 12.9 61 4.4 SSE 24 33 13 18 1017.5 - 0.0
16/02:15pm 20.6 17.7 12.8 61 4.4 S 20 30 11 16 1017.5 - 0.0
16/02:00pm 20.7 17.7 12.7 60 4.6 S 20 33 11 18 1017.6 - 0.0
16/01:45pm 20.8 18.4 12.8 60 4.6 S 17 28 9 15 1017.6 - 0.0
16/01:30pm 20.0 17.2 12.5 62 4.2 S 19 30 10 16 1017.7 - 0.0
16/01:15pm 20.4 17.6 12.7 61 4.4 S 19 30 10 16 1017.8 - 0.0
16/01:00pm 20.7 18.0 13.0 61 4.4 S 19 28 10 15 1017.9 - 0.0
16/12:45pm 20.7 18.1 13.2 62 4.3 S 19 32 10 17 1018.2 - 0.0
16/12:30pm 20.1 17.9 13.2 64 4.0 S 17 26 9 14 1018.5 - 0.0
16/12:15pm 19.6 17.3 13.0 65 3.8 S 17 30 9 16 1018.8 - 0.0
16/12:00pm 20.4 18.2 13.3 63 4.1 SSE 17 28 9 15 1019.0 - 0.0
16/11:45am 20.1 17.9 13.4 65 3.9 S 17 26 9 14 1019.3 - 0.0
16/11:30am 20.1 18.0 13.7 66 3.7 S 17 26 9 14 1019.4 - 0.0
16/11:15am 19.9 17.1 13.3 65 3.8 S 20 30 11 16 1019.4 - 0.0
16/11:00am 20.0 17.6 13.7 67 3.6 S 19 32 10 17 1019.5 - 0.0
16/10:45am 19.8 17.4 13.9 69 3.4 S 19 28 10 15 1019.6 - 0.0
16/10:30am 18.7 16.9 13.3 71 3.1 S 15 28 8 15 1019.7 - 0.0
16/10:15am 18.6 17.0 12.9 69 3.2 SSW 13 26 7 14 1019.8 - 0.0
16/10:00am 18.4 16.8 12.7 69 3.2 SW 13 19 7 10 1019.9 - 0.0
16/09:45am 17.7 15.1 12.1 69 3.1 SW 17 22 9 12 1019.9 - 0.0
16/09:30am 17.8 15.3 12.2 70 3.1 SW 17 26 9 14 1019.8 - 0.0
16/09:15am 17.5 15.4 12.4 72 2.8 WSW 15 22 8 12 1019.9 - 0.0
16/09:00am 16.7 14.5 12.0 74 2.6 SW 15 22 8 12 1020.0 - 4.3
16/08:45am 16.8 14.2 12.0 73 2.6 SW 17 24 9 13 1019.9 - 4.3
16/08:30am 16.4 14.1 11.9 75 2.5 SW 15 22 8 12 1019.8 - 4.3
16/08:15am 15.9 13.2 11.7 76 2.3 SW 17 24 9 13 1019.8 - 4.3
16/08:00am 15.4 12.4 11.8 79 2.0 SW 19 26 10 14 1019.7 - 4.3
16/07:45am 14.7 12.3 11.5 81 1.7 SW 15 24 8 13 1019.6 - 4.3
16/07:30am 14.4 12.0 11.3 81 1.7 SW 15 20 8 11 1019.5 - 4.3
16/07:15am 14.5 12.5 11.5 82 1.6 SSW 13 19 7 10 1019.3 - 4.3
16/07:00am 14.4 12.1 11.7 84 1.5 SSW 15 20 8 11 1019.1 - 4.3
16/06:45am 14.2 11.5 11.8 85 1.3 SSW 17 22 9 12 1019.0 - 4.3
16/06:30am 13.6 11.1 11.1 85 1.3 SSW 15 26 8 14 1018.9 - 4.3
16/06:15am 13.6 11.8 11.0 84 1.4 SSW 11 22 6 12 1018.8 - 4.3
16/06:00am 13.9 12.2 11.2 84 1.4 SSW 11 19 6 10 1018.7 - 4.3
16/05:45am 13.9 11.8 11.3 84 1.4 SSW 13 19 7 10 1018.7 - 4.3
16/05:30am 13.6 11.1 11.0 84 1.4 SW 15 20 8 11 1018.6 - 4.3
16/05:15am 13.4 10.1 10.9 85 1.3 SW 19 22 10 12 1018.6 - 4.3
16/05:00am 13.2 10.6 10.7 85 1.3 SW 15 20 8 11 1018.6 - 4.3
16/04:45am 13.0 10.7 10.5 85 1.3 SSW 13 15 7 8 1018.6 - 4.3
16/04:30am 13.2 10.9 10.5 84 1.4 SSW 13 17 7 9 1018.5 - 4.3
16/04:15am 13.7 11.4 10.5 81 1.7 SW 13 17 7 9 1018.4 - 4.3
16/04:00am 14.6 12.1 11.2 80 1.8 SSW 15 24 8 13 1018.3 - 4.3
16/03:45am 14.7 11.9 11.3 80 1.8 SSW 17 26 9 14 1018.3 - 4.3
16/03:30am 14.7 11.5 11.4 80 1.8 S 19 30 10 16 1018.3 - 4.3
16/03:15am 14.6 11.2 11.3 80 1.8 S 20 30 11 16 1018.5 - 4.3
16/03:00am 14.6 11.4 11.3 80 1.8 S 19 28 10 15 1018.6 - 4.3
16/02:45am 14.7 11.5 11.4 80 1.8 S 19 26 10 14 1018.7 - 4.3
16/02:30am 14.8 11.7 11.5 80 1.8 S 19 28 10 15 1018.7 - 4.3
16/02:15am 14.8 10.7 11.6 81 1.7 S 24 37 13 20 1018.8 - 4.3
16/02:00am 14.8 11.5 11.5 80 1.8 S 20 30 11 16 1019.0 - 4.3
16/01:45am 14.9 11.8 11.5 80 1.8 S 19 30 10 16 1019.3 - 4.3
16/01:30am 15.0 11.9 11.6 80 1.8 S 19 30 10 16 1019.4 - 4.3
16/01:15am 15.1 12.0 11.7 80 1.8 S 19 30 10 16 1019.5 - 4.3
16/01:00am 14.9 12.1 11.5 80 1.8 S 17 24 9 13 1019.7 - 4.3
16/12:45am 15.2 12.5 11.7 79 1.9 S 17 28 9 15 1019.8 - 4.3
16/12:30am 15.5 12.4 12.1 80 1.9 S 20 35 11 19 1019.7 - 4.3
16/12:15am 15.4 11.1 12.2 81 1.8 S 26 39 14 21 1019.7 - 4.3
16/12:00am 15.5 12.1 12.5 82 1.7 S 22 37 12 20 1019.7 - 4.3
 
Date/Time
EST
Tmp

°C
App
Tmp
°C
Dew
Point
°C
Rel
Hum
%
Delta-T

°C
Wind Press
QNH
hPa
Press
MSL
hPa
Rain
since
9 am
mm
Dir
 
Spd
km/h
Gust
km/h
Spd
kts
Gust
kts
15/11:45pm 15.3 12.0 12.7 84 1.4 S 22 41 12 22 1019.7 - 4.3
15/11:30pm 15.2 10.8 12.9 86 1.3 S 28 46 15 25 1019.7 - 4.3
15/11:15pm 14.9 11.3 12.9 88 1.1 S 24 37 13 20 1019.8 - 4.3
15/11:00pm 14.8 11.6 13.0 89 1.0 S 22 33 12 18 1020.0 - 4.3
15/10:45pm 14.6 11.3 12.9 89 0.9 S 22 33 12 18 1020.1 - 4.3
15/10:30pm 14.6 11.3 12.9 89 0.9 S 22 37 12 20 1020.2 - 4.3
15/10:15pm 14.6 10.6 12.9 89 0.9 S 26 37 14 20 1020.2 - 4.3
15/10:00pm 14.6 11.4 13.0 90 0.9 S 22 33 12 18 1020.4 - 4.3
15/09:45pm 14.9 11.4 13.3 90 0.9 S 24 41 13 22 1020.6 - 4.3
15/09:30pm 15.0 12.4 13.3 89 1.0 S 19 28 10 15 1020.5 - 3.9
15/09:15pm 15.1 12.0 13.5 90 0.9 S 22 32 12 17 1020.4 - 3.7
15/09:00pm 15.0 11.9 13.4 90 0.9 S 22 32 12 17 1020.3 - 2.6
15/08:45pm 15.0 11.9 13.4 90 0.9 S 22 33 12 18 1020.2 - 2.4
15/08:30pm 14.9 11.8 13.3 90 0.9 S 22 32 12 17 1020.1 - 2.4
15/08:15pm 14.8 12.0 13.2 90 0.9 S 20 30 11 16 1020.1 - 2.4
15/08:00pm 14.8 11.6 13.2 90 0.9 S 22 35 12 19 1020.1 - 2.4
15/07:45pm 14.8 11.6 13.1 89 0.9 S 22 33 12 18 1019.9 - 2.2
15/07:30pm 14.8 11.2 13.0 89 1.0 S 24 35 13 19 1019.9 - 2.0
15/07:15pm 14.9 10.9 13.0 88 1.1 S 26 39 14 21 1019.9 - 1.8
15/07:00pm 15.0 11.0 13.1 88 1.1 S 26 41 14 22 1019.8 - 1.3
15/06:45pm 15.1 11.9 13.2 88 1.1 S 22 37 12 20 1019.8 - 1.3
15/06:30pm 14.9 12.1 13.1 89 1.0 S 20 35 11 19 1019.7 - 1.1
15/06:15pm 15.1 11.1 13.0 87 1.2 S 26 37 14 20 1019.7 - 1.1
15/06:00pm 15.6 11.3 13.2 86 1.3 S 28 46 15 25 1019.4 - 1.1
15/05:45pm 15.9 12.1 13.5 86 1.4 S 26 41 14 22 1019.3 - 0.7
15/05:30pm 16.2 13.7 14.0 87 1.3 SSE 20 37 11 20 1019.1 - 0.6
15/05:15pm 16.1 13.6 14.0 87 1.2 SSE 20 30 11 16 1018.8 - 0.6
15/05:00pm 16.0 13.6 13.9 87 1.2 S 19 28 10 15 1018.8 - 0.6
15/04:45pm 15.9 13.3 13.7 87 1.2 S 20 33 11 18 1018.9 - 0.6
15/04:30pm 16.3 12.5 13.7 84 1.5 S 26 44 14 24 1019.0 - 0.6
15/04:15pm 16.9 14.4 14.0 83 1.7 SSE 20 32 11 17 1018.9 - 0.0
15/04:00pm 17.5 13.4 13.9 79 2.1 SSE 28 37 15 20 1018.9 - 0.0
15/03:45pm 18.5 15.2 14.0 75 2.6 SSE 24 37 13 20 1018.7 - 0.0
15/03:30pm 18.9 14.8 13.7 72 3.0 SSE 28 39 15 21 1018.8 - 0.0
15/03:15pm 19.4 15.9 13.4 68 3.4 SSE 24 37 13 20 1018.6 - 0.0
15/03:00pm 19.6 16.1 12.1 62 4.2 SSE 22 35 12 19 1018.6 - 0.0
15/02:45pm 19.9 16.2 11.4 58 4.7 S 22 33 12 18 1018.6 - 0.0
15/02:30pm 20.1 16.0 11.3 57 4.9 SSE 24 33 13 18 1018.4 - 0.0
15/02:15pm 20.9 18.0 12.2 57 4.9 SSE 19 37 10 20 1018.4 - 0.0
15/02:00pm 20.0 16.8 11.2 57 4.9 SSE 19 30 10 16 1018.4 - 0.0
15/01:45pm 20.1 16.5 10.4 53 5.3 SSE 20 32 11 17 1018.4 - 0.0
15/01:30pm 20.8 17.3 10.1 50 5.8 SSE 19 30 10 16 1018.4 - 0.0
15/01:15pm 21.4 19.9 10.4 49 6.0 S 9 19 5 10 1018.5 - 0.0
15/01:00pm 21.2 18.9 10.3 49 6.0 S 13 22 7 12 1018.6 - 0.0
15/12:45pm 21.0 19.1 10.6 51 5.7 SSE 11 19 6 10 1018.7 - 0.0
15/12:30pm 20.5 18.0 9.8 50 5.8 SSE 13 19 7 10 1018.9 - 0.0
15/12:15pm 20.3 18.6 9.8 51 5.7 S 9 17 5 9 1019.2 - 0.0
15/12:00pm 20.3 18.9 9.5 50 5.8 S 7 15 4 8 1019.4 - 0.0
15/11:45am 19.8 17.6 9.3 50 5.6 SSE 11 19 6 10 1019.8 - 0.0
15/11:30am 20.3 18.4 10.5 53 5.4 S 11 19 6 10 1019.9 - 0.0
15/11:15am 20.2 18.2 10.2 52 5.4 S 11 15 6 8 1020.1 - 0.0
15/11:00am 20.1 19.0 10.8 55 5.1 SSW 7 15 4 8 1020.1 - 0.0
15/10:45am 19.2 17.6 10.1 55 4.9 WSW 9 17 5 9 1020.2 - 0.0
15/10:30am 19.2 17.6 10.3 56 4.8 WSW 9 15 5 8 1020.4 - 0.0
15/10:15am 18.7 17.5 10.4 58 4.5 SW 7 15 4 8 1020.6 - 0.0
15/10:00am 17.8 15.7 9.8 59 4.3 WSW 11 17 6 9 1020.7 - 0.0
15/09:45am 17.6 15.6 10.3 62 3.9 SW 11 15 6 8 1020.8 - 0.0
15/09:30am 16.7 14.2 9.8 63 3.6 WSW 13 15 7 8 1020.9 - 0.0
15/09:15am 16.6 14.6 10.1 65 3.4 SW 11 15 6 8 1020.9 - 0.0
15/09:00am 16.1 13.7 10.0 67 3.2 SW 13 19 7 10 1020.8 - 0.0
15/08:45am 15.4 13.0 10.1 70 2.8 WSW 13 19 7 10 1020.6 - 0.0
15/08:30am 15.0 12.6 9.9 71 2.7 WSW 13 19 7 10 1020.6 - 0.0
15/08:15am 14.6 12.1 9.8 73 2.5 SW 13 19 7 10 1020.5 - 0.0
15/08:00am 13.9 11.0 9.5 75 2.3 SW 15 20 8 11 1020.4 - 0.0
15/07:45am 13.6 10.7 9.5 76 2.1 SW 15 19 8 10 1020.5 - 0.0
15/07:30am 12.9 10.0 9.5 80 1.7 SW 15 20 8 11 1020.4 - 0.0
15/07:15am 12.2 8.5 9.5 83 1.4 SW 19 26 10 14 1020.4 - 0.0
15/07:00am 11.6 7.3 9.3 86 1.2 SW 22 28 12 15 1020.3 - 0.0
15/06:45am 11.3 7.3 9.1 86 1.1 SW 20 24 11 13 1020.1 - 0.0
15/06:30am 11.3 7.0 9.2 87 1.1 SW 22 26 12 14 1020.1 - 0.0
15/06:15am 11.6 7.3 9.4 86 1.1 WSW 22 26 12 14 1020.1 - 0.0
15/06:00am 11.8 7.6 9.6 86 1.1 SW 22 26 12 14 1020.0 - 0.0
15/05:45am 12.0 8.7 9.7 86 1.2 SW 17 22 9 12 1019.9 - 0.0
15/05:30am 12.6 9.9 10.3 86 1.2 SSW 15 17 8 9 1019.8 - 0.0
15/05:15am 12.9 9.9 10.6 86 1.2 S 17 19 9 10 1019.8 - 0.0
15/05:00am 13.0 10.4 10.7 86 1.2 S 15 19 8 10 1019.8 - 0.0
15/04:45am 13.2 10.7 10.9 86 1.2 S 15 20 8 11 1019.8 - 0.0
15/04:30am 12.8 9.4 10.7 87 1.1 S 19 22 10 12 1019.8 - 0.0
15/04:15am 12.4 8.9 10.2 86 1.1 S 19 22 10 12 1019.9 - 0.0
15/04:00am 12.2 8.6 9.9 86 1.2 S 19 22 10 12 1019.8 - 0.0
15/03:45am 12.1 9.2 9.7 85 1.2 SSW 15 19 8 10 1019.7 - 0.0
15/03:30am 12.2 8.9 9.7 85 1.3 SSW 17 19 9 10 1019.8 - 0.0
15/03:15am 12.2 9.3 9.5 83 1.4 SSW 15 19 8 10 1019.8 - 0.0
15/03:00am 12.4 9.1 9.5 82 1.5 SSW 17 20 9 11 1019.8 - 0.0
15/02:45am 13.0 10.2 10.0 82 1.6 SSW 15 19 8 10 1019.9 - 0.0
15/02:30am 13.0 10.6 10.0 82 1.6 SSW 13 17 7 9 1019.9 - 0.0
15/02:15am 12.8 10.4 9.9 82 1.5 SSW 13 15 7 8 1019.9 - 0.0
15/02:00am 12.8 10.3 9.8 82 1.5 SSW 13 17 7 9 1020.0 - 0.0
15/01:45am 13.0 11.0 10.0 82 1.6 SSW 11 13 6 7 1020.1 - 0.0
15/01:30am 13.2 11.2 10.1 81 1.6 SSW 11 13 6 7 1020.2 - 0.0
15/01:15am 13.3 12.1 10.3 82 1.6 SSW 7 13 4 7 1020.5 - 0.0
15/01:00am 13.1 11.9 10.2 82 1.5 SSW 7 9 4 5 1020.5 - 0.0
15/12:45am 13.1 11.5 10.1 82 1.6 SSW 9 11 5 6 1020.5 - 0.0
15/12:30am 13.3 11.3 10.2 81 1.6 SSW 11 19 6 10 1020.5 - 0.0
15/12:15am 13.4 10.6 10.0 80 1.8 SW 15 19 8 10 1020.4 - 0.0
15/12:00am 13.7 11.4 10.3 80 1.8 SW 13 17 7 9 1020.5 - 0.0
 
Date/Time
EST
Tmp

°C
App
Tmp
°C
Dew
Point
°C
Rel
Hum
%
Delta-T

°C
Wind Press
QNH
hPa
Press
MSL
hPa
Rain
since
9 am
mm
Dir
 
Spd
km/h
Gust
km/h
Spd
kts
Gust
kts
14/11:45pm 14.0 11.7 10.5 79 1.8 SW 13 19 7 10 1020.6 - 0.0
14/11:30pm 14.0 11.7 10.5 79 1.8 SW 13 17 7 9 1020.7 - 0.0
14/11:15pm 14.1 11.8 10.6 79 1.8 SW 13 17 7 9 1020.6 - 0.0
14/11:00pm 14.4 12.1 10.6 78 2.0 SW 13 19 7 10 1020.6 - 0.0
14/10:45pm 14.9 12.8 11.0 77 2.1 SSW 13 19 7 10 1020.8 - 0.0
14/10:30pm 14.8 12.7 11.0 78 2.0 SSW 13 17 7 9 1020.9 - 0.0
14/10:15pm 14.8 12.7 11.2 79 1.9 SSW 13 20 7 11 1020.9 - 0.0
14/10:00pm 14.9 12.8 11.2 78 2.0 SSW 13 19 7 10 1020.9 - 0.0
14/09:45pm 15.1 13.4 11.3 78 2.0 SSW 11 19 6 10 1021.0 - 0.0
14/09:30pm 15.3 12.6 11.6 78 2.0 SW 17 22 9 12 1021.0 - 0.0
14/09:15pm 15.2 12.2 11.9 81 1.8 SW 19 26 10 14 1021.1 - 0.0
14/09:00pm 15.3 12.2 12.1 81 1.8 SW 20 28 11 15 1021.0 - 0.0
14/08:45pm 15.3 12.4 12.4 83 1.6 WSW 19 26 10 14 1021.0 - 0.0
14/08:30pm 15.1 13.0 12.5 84 1.4 WSW 15 20 8 11 1020.9 - 0.0
14/08:15pm 15.1 13.8 12.4 84 1.5 WSW 11 15 6 8 1020.8 - 0.0
14/08:00pm 15.1 14.1 12.3 83 1.5 SW 9 15 5 8 1020.7 - 0.0
14/07:45pm 15.0 13.3 12.3 84 1.5 S 13 20 7 11 1020.7 - 0.0
14/07:30pm 15.1 13.0 12.3 83 1.5 S 15 26 8 14 1020.7 - 0.0
14/07:15pm 15.2 12.3 12.3 83 1.6 S 19 30 10 16 1020.7 - 0.0
14/07:00pm 15.1 12.0 12.1 82 1.6 S 20 33 11 18 1020.5 - 0.0
14/06:45pm 15.3 11.4 12.1 81 1.8 S 24 35 13 19 1020.3 - 0.0
14/06:30pm 15.4 12.3 12.1 81 1.8 S 20 33 11 18 1020.2 - 0.0
14/06:15pm 15.6 13.1 12.4 81 1.8 S 17 26 9 14 1020.2 - 0.0
14/06:00pm 15.8 13.3 12.3 80 1.9 S 17 30 9 16 1020.1 - 0.0
14/05:45pm 16.2 13.3 12.3 78 2.2 S 19 28 10 15 1020.0 - 0.0
14/05:30pm 16.3 14.1 12.2 77 2.3 S 15 26 8 14 1019.8 - 0.0
14/05:15pm 16.4 14.3 12.3 77 2.3 S 15 22 8 12 1019.7 - 0.0
14/05:00pm 16.5 13.4 12.1 75 2.4 SSE 20 37 11 20 1019.6 - 0.0
14/04:45pm 16.7 13.8 12.2 75 2.5 S 19 30 10 16 1019.3 - 0.0
14/04:30pm 16.8 13.0 12.3 75 2.5 S 24 39 13 21 1019.2 - 0.0
14/04:15pm 17.1 14.1 12.4 74 2.6 S 20 33 11 18 1019.3 - 0.0
14/04:00pm 17.3 14.5 12.7 74 2.6 S 19 30 10 16 1019.2 - 0.0
14/03:45pm 17.4 14.6 12.6 73 2.7 S 19 33 10 18 1019.1 - 0.0
14/03:30pm 17.6 14.2 12.5 72 2.8 S 22 32 12 17 1019.1 - 0.0
14/03:15pm 18.0 14.3 12.7 71 3.0 S 24 32 13 17 1019.0 - 0.0
14/03:00pm 18.2 15.4 13.2 72 2.8 S 20 33 11 18 1018.9 - 0.0
14/02:45pm 18.1 15.6 13.5 74 2.6 S 19 28 10 15 1018.9 - 0.0
14/02:30pm 17.6 14.0 13.2 75 2.5 S 24 35 13 19 1019.0 - 0.0
14/02:15pm 17.7 14.2 13.3 75 2.5 S 24 35 13 19 1019.1 - 0.0
14/02:00pm 17.6 14.1 13.3 76 2.4 S 24 37 13 20 1019.0 - 0.0
14/01:45pm 18.0 14.6 13.8 76 2.4 S 24 41 13 22 1019.0 - 0.0
14/01:30pm 17.4 14.4 13.8 79 2.1 S 22 33 12 18 1019.1 - 0.0
14/01:15pm 17.5 13.7 13.7 78 2.2 S 26 41 14 22 1019.2 - 0.0
14/01:00pm 17.4 13.5 13.3 77 2.3 S 26 39 14 21 1019.4 - 0.0
14/12:45pm 17.9 13.9 13.0 73 2.8 S 26 41 14 22 1019.5 - 0.0
14/12:30pm 18.2 15.0 13.0 71 2.9 SSE 22 39 12 21 1019.5 - 0.0
14/12:15pm 18.4 15.8 13.2 71 3.0 S 19 33 10 18 1019.7 - 0.0
14/12:00pm 18.8 16.0 13.1 69 3.2 SSE 20 30 11 16 1019.8 - 0.0
14/11:45am 19.0 16.1 13.0 68 3.4 S 20 32 11 17 1019.9 - 0.0
14/11:30am 18.7 16.4 13.1 70 3.2 S 17 26 9 14 1020.0 - 0.0
14/11:15am 18.5 16.3 13.4 72 2.9 S 17 30 9 16 1020.3 - 0.0
14/11:00am 17.5 15.5 12.8 74 2.6 S 15 24 8 13 1020.5 - 0.0
14/10:45am 17.3 14.9 12.6 74 2.6 S 17 33 9 18 1020.6 - 0.0
14/10:30am 17.1 13.1 11.9 71 2.9 SSE 24 33 13 18 1020.6 - 0.0
14/10:15am 17.3 13.0 11.9 70 3.0 SSE 26 35 14 19 1020.5 - 0.0
14/10:00am 16.7 13.0 11.5 71 2.8 SSE 22 33 12 18 1020.4 - 0.0
14/09:45am 16.7 14.8 11.8 73 2.7 SSE 13 22 7 12 1020.4 - 0.0
14/09:30am 16.5 13.4 11.5 72 2.7 S 19 28 10 15 1020.4 - 0.0
14/09:15am 16.2 12.4 11.3 73 2.7 S 22 33 12 18 1020.4 - 0.0
14/09:00am 16.1 12.3 11.3 73 2.6 SSE 22 37 12 20 1020.3 - 0.0
14/08:45am 16.0 12.6 11.3 73 2.5 SSE 20 30 11 16 1020.0 - 0.0
14/08:30am 16.4 12.2 11.1 71 2.9 S 24 41 13 22 1019.9 - 0.0
14/08:15am 16.4 13.6 11.2 71 2.8 S 17 30 9 16 1019.6 - 0.0
14/08:00am 15.2 11.8 10.4 73 2.5 S 19 28 10 15 1019.5 - 0.0
14/07:45am 14.5 11.3 10.0 74 2.4 S 17 28 9 15 1019.3 - 0.0
14/07:30am 13.2 9.8 9.0 75 2.1 S 17 26 9 14 1019.2 - 0.0
14/07:15am 11.9 8.9 7.7 75 2.1 S 13 26 7 14 1019.2 - 0.0
14/07:00am 11.6 8.8 6.9 73 2.3 SSW 11 20 6 11 1019.2 - 0.0
14/06:45am 12.5 9.5 7.6 72 2.4 S 13 19 7 10 1018.9 - 0.0
14/06:30am 12.0 8.1 7.1 72 2.4 S 17 20 9 11 1018.7 - 0.0
14/06:15am 11.9 8.4 7.0 72 2.4 SSW 15 20 8 11 1018.8 - 0.0
14/06:00am 12.6 9.4 6.8 68 2.8 SSW 13 19 7 10 1018.9 - 0.0
14/05:45am 13.6 9.8 7.4 66 3.1 SSW 17 26 9 14 1018.8 - 0.0
14/05:30am 13.1 9.0 7.7 70 2.7 S 19 26 10 14 1018.6 - 0.0
14/05:15am 13.0 8.9 7.9 71 2.5 S 19 26 10 14 1018.4 - 0.0
14/05:00am 12.9 8.8 8.0 72 2.4 S 19 24 10 13 1018.4 - 0.0
14/04:45am 13.3 9.3 8.3 72 2.5 S 19 24 10 13 1018.3 - 0.0
14/04:30am 13.2 9.3 8.7 74 2.3 S 19 26 10 14 1018.2 - 0.0
14/04:15am 13.0 9.2 9.0 77 2.0 S 19 26 10 14 1018.1 - 0.0
14/04:00am 12.9 9.1 9.2 78 1.9 S 19 26 10 14 1018.0 - 0.0
14/03:45am 13.1 9.5 9.7 80 1.8 S 19 30 10 16 1018.0 - 0.0
14/03:30am 12.7 9.1 9.7 82 1.5 SSW 19 26 10 14 1018.1 - 0.0
14/03:15am 12.7 9.4 9.7 82 1.5 SSW 17 20 9 11 1018.2 - 0.0
14/03:00am 12.9 9.7 9.8 81 1.6 SSW 17 26 9 14 1018.4 - 0.0
14/02:45am 12.9 9.1 9.9 82 1.5 SSW 20 30 11 16 1018.6 - 0.0
14/02:30am 12.8 8.6 9.8 82 1.5 SW 22 30 12 16 1018.8 - 0.0
14/02:15am 13.1 9.4 10.0 81 1.6 SW 20 26 11 14 1018.9 - 0.0
14/02:00am 13.2 8.7 10.1 81 1.6 SW 24 28 13 15 1019.1 - 0.0

Latest Capital City Observations: Canberra | Sydney | Melbourne | Brisbane | Adelaide | Perth | Hobart | Darwin

Other Formats:

Comma delimited format used in spreadsheet applications
http://www.bom.gov.au/fwo/IDN60901/IDN60901.95757.axf

JavaScript Object Notation format (JSON) in row-major order
http://www.bom.gov.au/fwo/IDN60901/IDN60901.95757.json